Time;durP1;ratioP1;P1;durP2;ratioP2;P2;SDS_P1;SDS_P2;PMS_P1;PMS_P2;Temp;Humidity;BMP_temperature;BMP_pressure;BME280_temperature;BME280_humidity;BME280_pressure;Samples;Min_cycle;Max_cycle;Signal;HPM_P1;HPM_P2
2022/08/28 00:04:19;;;;;;;;;;;;;;;15.9;53.17773;102123.2;;;;-74
2022/08/28 00:09:19;;;;;;;;;;;;;;;15.93;53.16797;102125.1;;;;-75
2022/08/28 00:14:20;;;;;;;;;;;;;;;15.97;53.06152;102126.7;;;;-77
2022/08/28 00:19:23;;;;;;;;;;;;;;;16.02;52.97559;102126.9;;;;-76
2022/08/28 00:24:19;;;;;;;;;;;;;;;16.02;52.98828;102127.9;;;;-75
2022/08/28 00:24:49;;;;;;;4.7;1.7;;;;;;;;;;;;;-75
2022/08/28 00:29:20;;;;;;;;;;;;;;;16.04;53.02441;102126.5;;;;-78
2022/08/28 00:34:19;;;;;;;;;;;;;;;16.06;52.87988;102124.3;;;;-77
2022/08/28 00:39:19;;;;;;;;;;;;;;;16.07;52.99414;102126;;;;-75
2022/08/28 00:44:21;;;;;;;;;;;;;;;16.08;52.97363;102126.8;;;;-75
2022/08/28 00:49:22;;;;;;;;;;;;;;;16.11;52.90918;102125.9;;;;-76
2022/08/28 00:54:20;;;;;;;;;;;;;;;16.11;52.91992;102122.8;;;;-75
2022/08/28 00:54:53;;;;;;;4.4;1.6;;;;;;;;;;;;;-74
2022/08/28 00:59:21;;;;;;;;;;;;;;;16.1;53.04297;102121.7;;;;-74
2022/08/28 01:04:20;;;;;;;;;;;;;;;16.05;53.01563;102119.2;;;;-75
2022/08/28 01:09:19;;;;;;;;;;;;;;;16;53.15527;102126.9;;;;-76
2022/08/28 01:14:23;;;;;;;;;;;;;;;15.94;53.26074;102126.1;;;;-73
2022/08/28 01:19:24;;;;;;;;;;;;;;;15.86;53.38672;102124.5;;;;-75
2022/08/28 01:24:21;;;;;;;;;;;;;;;15.81;53.39258;102123.1;;;;-74
2022/08/28 01:24:55;;;;;;;4.1;1.6;;;;;;;;;;;;;-75
2022/08/28 01:29:19;;;;;;;;;;;;;;;15.72;53.4375;102121.4;;;;-76
2022/08/28 01:34:20;;;;;;;;;;;;;;;15.69;53.68164;102117.3;;;;-75
2022/08/28 01:39:21;;;;;;;;;;;;;;;15.69;53.7041;102120.6;;;;-74
2022/08/28 01:44:24;;;;;;;;;;;;;;;15.72;53.66211;102121.3;;;;-74
2022/08/28 01:49:20;;;;;;;;;;;;;;;15.76;53.57715;102121.7;;;;-74
2022/08/28 01:54:19;;;;;;;;;;;;;;;15.76;53.62207;102124;;;;-74
2022/08/28 01:54:55;;;;;;;3.8;1.6;;;;;;;;;;;;;-74
2022/08/28 01:59:21;;;;;;;;;;;;;;;15.78;53.63672;102123.5;;;;-76
2022/08/28 02:04:19;;;;;;;;;;;;;;;15.8;53.59375;102121.5;;;;-74
2022/08/28 02:09:19;;;;;;;;;;;;;;;15.82;53.59668;102125.1;;;;-74
2022/08/28 02:14:21;;;;;;;;;;;;;;;15.85;53.53223;102121.7;;;;-75
2022/08/28 02:19:20;;;;;;;;;;;;;;;15.85;53.57813;102121.8;;;;-74
2022/08/28 02:24:19;;;;;;;;;;;;;;;15.87;53.60156;102124.8;;;;-76
2022/08/28 02:24:57;;;;;;;3.6;1.3;;;;;;;;;;;;;-74
2022/08/28 02:29:19;;;;;;;;;;;;;;;15.9;53.48145;102131.7;;;;-76
2022/08/28 02:34:19;;;;;;;;;;;;;;;15.88;53.5127;102135;;;;-74
2022/08/28 02:39:21;;;;;;;;;;;;;;;15.88;53.54785;102135.4;;;;-74
2022/08/28 02:44:20;;;;;;;;;;;;;;;15.85;53.51953;102138.5;;;;-76
2022/08/28 02:49:19;;;;;;;;;;;;;;;15.84;53.61035;102137.6;;;;-74
2022/08/28 02:54:20;;;;;;;;;;;;;;;15.81;53.70801;102132.9;;;;-76
2022/08/28 02:55:02;;;;;;;3.6;1.4;;;;;;;;;;;;;-75
2022/08/28 02:59:19;;;;;;;;;;;;;;;15.8;53.62793;102134.2;;;;-76
2022/08/28 03:04:25;;;;;;;;;;;;;;;15.8;53.83008;102140;;;;-73
2022/08/28 03:09:19;;;;;;;;;;;;;;;15.77;53.83789;102139.1;;;;-74
2022/08/28 03:14:19;;;;;;;;;;;;;;;15.75;53.7793;102138.5;;;;-76
2022/08/28 03:19:19;;;;;;;;;;;;;;;15.74;53.7666;102145.4;;;;-75
2022/08/28 03:24:19;;;;;;;;;;;;;;;15.72;53.83105;102145.2;;;;-75
2022/08/28 03:25:02;;;;;;;2.8;1;;;;;;;;;;;;;-76
2022/08/28 03:29:22;;;;;;;;;;;;;;;15.68;53.79395;102145.6;;;;-76
2022/08/28 03:34:19;;;;;;;;;;;;;;;15.67;53.97266;102149.6;;;;-75
2022/08/28 03:39:20;;;;;;;;;;;;;;;15.63;53.99023;102146.1;;;;-75
2022/08/28 03:44:19;;;;;;;;;;;;;;;15.6;54.14551;102148.3;;;;-75
2022/08/28 03:49:19;;;;;;;;;;;;;;;15.55;54.24023;102154.5;;;;-75
2022/08/28 03:54:19;;;;;;;;;;;;;;;15.54;54.3291;102150.4;;;;-75
2022/08/28 03:55:03;;;;;;;3.6;1.5;;;;;;;;;;;;;-75
2022/08/28 03:59:21;;;;;;;;;;;;;;;15.51;54.28027;102152.4;;;;-75
2022/08/28 04:04:19;;;;;;;;;;;;;;;15.44;54.44043;102155.1;;;;-76
2022/08/28 04:09:19;;;;;;;;;;;;;;;15.39;54.43457;102163.9;;;;-76
2022/08/28 04:14:19;;;;;;;;;;;;;;;15.32;54.63965;102168.6;;;;-74
2022/08/28 04:19:20;;;;;;;;;;;;;;;15.24;54.74316;102172.7;;;;-75
2022/08/28 04:24:19;;;;;;;;;;;;;;;15.2;54.87305;102176;;;;-76
2022/08/28 04:25:05;;;;;;;3.8;1.4;;;;;;;;;;;;;-75
2022/08/28 04:29:19;;;;;;;;;;;;;;;15.12;55.08887;102182.4;;;;-76
2022/08/28 04:34:19;;;;;;;;;;;;;;;15.12;55.08887;102187.9;;;;-75
2022/08/28 04:39:19;;;;;;;;;;;;;;;15.09;55.27637;102188;;;;-76
2022/08/28 04:44:19;;;;;;;;;;;;;;;15.05;55.37109;102187.7;;;;-75
2022/08/28 04:49:19;;;;;;;;;;;;;;;15.03;55.34766;102192.8;;;;-75
2022/08/28 04:54:19;;;;;;;;;;;;;;;14.97;55.48633;102196.8;;;;-74
2022/08/28 04:55:07;;;;;;;3.7;1.4;;;;;;;;;;;;;-74
2022/08/28 04:59:19;;;;;;;;;;;;;;;14.9;55.57813;102199.1;;;;-76
2022/08/28 05:04:19;;;;;;;;;;;;;;;14.87;55.74316;102204.3;;;;-75
2022/08/28 05:09:21;;;;;;;;;;;;;;;14.85;55.79688;102204.1;;;;-75
2022/08/28 05:14:20;;;;;;;;;;;;;;;14.8;55.88184;102208.9;;;;-76
2022/08/28 05:19:20;;;;;;;;;;;;;;;14.78;55.93555;102212.9;;;;-75
2022/08/28 05:24:20;;;;;;;;;;;;;;;14.79;55.84668;102213.1;;;;-75
2022/08/28 05:25:09;;;;;;;2.7;1.3;;;;;;;;;;;;;-75
2022/08/28 05:29:20;;;;;;;;;;;;;;;14.8;55.83594;102217.1;;;;-76
2022/08/28 05:34:19;;;;;;;;;;;;;;;14.79;55.82422;102216.9;;;;-75
2022/08/28 05:39:19;;;;;;;;;;;;;;;14.78;55.75488;102219.5;;;;-74
2022/08/28 05:44:19;;;;;;;;;;;;;;;14.81;55.86035;102216.9;;;;-74
2022/08/28 05:49:20;;;;;;;;;;;;;;;14.86;55.67578;102218.9;;;;-77
2022/08/28 05:54:19;;;;;;;;;;;;;;;14.97;55.46387;102214.7;;;;-76
2022/08/28 05:55:11;;;;;;;4.1;1.2;;;;;;;;;;;;;-76
2022/08/28 05:59:19;;;;;;;;;;;;;;;15.3;55.29102;102216.8;;;;-75
2022/08/28 06:04:22;;;;;;;;;;;;;;;15.9;54.10352;102217.3;;;;-76
2022/08/28 06:09:21;;;;;;;;;;;;;;;16.46;53.07422;102218.1;;;;-75
2022/08/28 06:14:21;;;;;;;;;;;;;;;16.8;52.36914;102216.8;;;;-76
2022/08/28 06:19:21;;;;;;;;;;;;;;;17.08;51.9375;102217.8;;;;-75
2022/08/28 06:24:19;;;;;;;;;;;;;;;17.31;51.63574;102219.3;;;;-77
2022/08/28 06:25:13;;;;;;;3.1;1.1;;;;;;;;;;;;;-75
2022/08/28 06:29:21;;;;;;;;;;;;;;;17.66;51.08691;102228.4;;;;-75
2022/08/28 06:34:22;;;;;;;;;;;;;;;18.08;50.4082;102236;;;;-76
2022/08/28 06:39:19;;;;;;;;;;;;;;;18.28;50.16992;102239.8;;;;-76
2022/08/28 06:44:22;;;;;;;;;;;;;;;18.35;50.42773;102236.6;;;;-77
2022/08/28 06:49:19;;;;;;;;;;;;;;;18.44;50.4375;102235.3;;;;-74
2022/08/28 06:54:19;;;;;;;;;;;;;;;18.66;50.22363;102229.3;;;;-76
2022/08/28 06:55:15;;;;;;;4.3;1.1;;;;;;;;;;;;;-77
2022/08/28 06:59:19;;;;;;;;;;;;;;;19.15;49.55176;102228.2;;;;-75
2022/08/28 07:04:19;;;;;;;;;;;;;;;19.56;48.63867;102235;;;;-78
2022/08/28 07:09:19;;;;;;;;;;;;;;;19.82;48.23438;102238.5;;;;-75
2022/08/28 07:14:19;;;;;;;;;;;;;;;20;47.92285;102242.7;;;;-76
2022/08/28 07:19:19;;;;;;;;;;;;;;;20.36;47.44629;102239.4;;;;-75
2022/08/28 07:24:20;;;;;;;;;;;;;;;20.79;46.97754;102246.6;;;;-76
2022/08/28 07:25:17;;;;;;;3.4;1.2;;;;;;;;;;;;;-76
2022/08/28 07:29:23;;;;;;;;;;;;;;;21.11;46.67969;102247.5;;;;-77
2022/08/28 07:34:20;;;;;;;;;;;;;;;21.35;46.61328;102255.7;;;;-77
2022/08/28 07:39:19;;;;;;;;;;;;;;;21.58;47.01563;102253.3;;;;-76
2022/08/28 07:49:19;;;;;;;;;;;;;;;22.45;46.25781;102257.8;;;;-75
2022/08/28 07:54:19;;;;;;;;;;;;;;;23.12;45.5791;102254.1;;;;-75
2022/08/28 07:55:20;;;;;;;2.8;1.1;;;;;;;;;;;;;-76
2022/08/28 07:59:19;;;;;;;;;;;;;;;23.79;45.01367;102256.6;;;;-77
2022/08/28 08:04:20;;;;;;;;;;;;;;;24.3;44.30273;102262.8;;;;-74
2022/08/28 08:09:20;;;;;;;;;;;;;;;24.32;44.375;102267.4;;;;-77
2022/08/28 08:14:19;;;;;;;;;;;;;;;24.1;44.52637;102274.5;;;;-75
2022/08/28 08:19:19;;;;;;;;;;;;;;;23.83;44.9707;102276.6;;;;-75
2022/08/28 08:24:19;;;;;;;;;;;;;;;23.61;44.58105;102280.9;;;;-75
2022/08/28 08:25:24;;;;;;;4;1.1;;;;;;;;;;;;;-75
2022/08/28 08:29:19;;;;;;;;;;;;;;;23.38;45.13379;102275.5;;;;-76
2022/08/28 08:34:19;;;;;;;;;;;;;;;23.18;45.27539;102278.6;;;;-76
2022/08/28 08:39:19;;;;;;;;;;;;;;;23.5;45.46875;102277.2;;;;-76
2022/08/28 08:44:23;;;;;;;;;;;;;;;24;44.59668;102273.3;;;;-76
2022/08/28 08:49:24;;;;;;;;;;;;;;;24.35;44.2168;102273.5;;;;-76
2022/08/28 08:54:24;;;;;;;;;;;;;;;24.9;43.36914;102277.1;;;;-76
2022/08/28 08:55:30;;;;;;;4.7;1;;;;;;;;;;;;;-74
2022/08/28 08:59:21;;;;;;;;;;;;;;;25.13;42.8125;102274.8;;;;-77
2022/08/28 09:04:25;;;;;;;;;;;;;;;25.31;42.65625;102272.9;;;;-75
2022/08/28 09:09:20;;;;;;;;;;;;;;;25.82;42.02051;102270.7;;;;-75
2022/08/28 09:14:23;;;;;;;;;;;;;;;26.36;41.20215;102273.1;;;;-75
2022/08/28 09:19:21;;;;;;;;;;;;;;;26.84;40.47852;102272.7;;;;-75
2022/08/28 09:24:22;;;;;;;;;;;;;;;27.27;39.76074;102276.2;;;;-76
2022/08/28 09:25:42;;;;;;;3.1;1.2;;;;;;;;;;;;;-74
2022/08/28 09:29:21;;;;;;;;;;;;;;;27.71;39.19434;102275;;;;-75
2022/08/28 09:34:37;;;;;;;;;;;;;;;28.18;38.60547;102265.5;;;;-75
2022/08/28 09:39:21;;;;;;;;;;;;;;;28.62;37.84961;102269.3;;;;-73
2022/08/28 09:44:21;;;;;;;;;;;;;;;28.67;37.38672;102277.9;;;;-74
2022/08/28 09:49:25;;;;;;;;;;;;;;;28.33;37.58008;102284.9;;;;-75
2022/08/28 09:54:24;;;;;;;;;;;;;;;28.39;37.92383;102277.8;;;;-76
2022/08/28 09:55:48;;;;;;;2.3;1;;;;;;;;;;;;;-77
2022/08/28 09:59:20;;;;;;;;;;;;;;;28.74;37.55566;102275;;;;-76
2022/08/28 10:04:32;;;;;;;;;;;;;;;29.17;36.82031;102277.9;;;;-77
2022/08/28 10:09:25;;;;;;;;;;;;;;;29.56;36.2207;102277.2;;;;-76
2022/08/28 10:14:27;;;;;;;;;;;;;;;30.01;35.91699;102278.7;;;;-76
2022/08/28 10:19:26;;;;;;;;;;;;;;;30.39;35.60645;102280;;;;-76
2022/08/28 10:24:33;;;;;;;;;;;;;;;30.5;34.98242;102264.3;;;;-76
2022/08/28 10:25:46;;;;;;;4.2;1.2;;;;;;;;;;;;;-75
2022/08/28 10:29:29;;;;;;;;;;;;;;;30.26;34.48242;102269.8;;;;-76
2022/08/28 10:34:30;;;;;;;;;;;;;;;30.12;34.87012;102266.8;;;;-74
2022/08/28 10:39:27;;;;;;;;;;;;;;;30.06;35.19434;102282.7;;;;-77
2022/08/28 10:44:23;;;;;;;;;;;;;;;30.09;34.99707;102274.7;;;;-76
2022/08/28 10:49:26;;;;;;;;;;;;;;;30.29;34.69531;102285.7;;;;-76
2022/08/28 10:54:24;;;;;;;;;;;;;;;30.23;34.36328;102283.8;;;;-75
2022/08/28 10:55:49;;;;;;;3.3;0.9;;;;;;;;;;;;;-74
2022/08/28 10:59:19;;;;;;;;;;;;;;;30.21;34.33789;102289.2;;;;-75
2022/08/28 11:04:22;;;;;;;;;;;;;;;30.02;34.42871;102286.6;;;;-74
2022/08/28 11:09:30;;;;;;;;;;;;;;;29.78;34.86719;102283;;;;-77
2022/08/28 11:14:29;;;;;;;;;;;;;;;29.79;35.13867;102280.8;;;;-76
2022/08/28 11:19:27;;;;;;;;;;;;;;;29.82;34.41406;102285.3;;;;-74
2022/08/28 11:24:29;;;;;;;;;;;;;;;29.67;34.96484;102285.6;;;;-76
2022/08/28 11:25:53;;;;;;;3;1;;;;;;;;;;;;;-76
2022/08/28 11:29:40;;;;;;;;;;;;;;;29.44;35.21582;102295.3;;;;-75
2022/08/28 11:34:30;;;;;;;;;;;;;;;29.14;34.86523;102298.5;;;;-76
2022/08/28 11:39:26;;;;;;;;;;;;;;;28.82;35.16797;102298.3;;;;-76
2022/08/28 11:44:31;;;;;;;;;;;;;;;28.67;35.6582;102297.9;;;;-75
2022/08/28 11:49:30;;;;;;;;;;;;;;;28.78;35.65527;102294.2;;;;-75
2022/08/28 11:54:26;;;;;;;;;;;;;;;29.09;35.57422;102291.5;;;;-76
2022/08/28 11:56:08;;;;;;;2.6;0.9;;;;;;;;;;;;;-75
2022/08/28 11:59:30;;;;;;;;;;;;;;;29.57;34.96875;102288.3;;;;-76
2022/08/28 12:04:22;;;;;;;;;;;;;;;29.95;33.39258;102295.7;;;;-77
2022/08/28 12:09:29;;;;;;;;;;;;;;;29.99;34.05176;102301.4;;;;-78
2022/08/28 12:14:29;;;;;;;;;;;;;;;29.93;33.84766;102290.8;;;;-76
2022/08/28 12:19:28;;;;;;;;;;;;;;;29.95;33.95508;102288.8;;;;-76
2022/08/28 12:24:23;;;;;;;;;;;;;;;30.21;33.72754;102293.8;;;;-75
2022/08/28 12:26:05;;;;;;;2.8;0.9;;;;;;;;;;;;;-75
2022/08/28 12:29:30;;;;;;;;;;;;;;;30.26;33.67285;102294.1;;;;-76
2022/08/28 12:34:23;;;;;;;;;;;;;;;30.17;34.07715;102299;;;;-76
2022/08/28 12:39:21;;;;;;;;;;;;;;;30.15;34.09863;102291.2;;;;-78
2022/08/28 12:44:19;;;;;;;;;;;;;;;30.19;33.73828;102287.4;;;;-77
2022/08/28 12:49:37;;;;;;;;;;;;;;;30.12;33.51074;102297.7;;;;-75
2022/08/28 12:54:19;;;;;;;;;;;;;;;29.88;33.15234;102286.6;;;;-75
2022/08/28 12:56:04;;;;;;;2.7;1;;;;;;;;;;;;;-77
2022/08/28 12:59:37;;;;;;;;;;;;;;;29.68;33.78223;102295.4;;;;-76
2022/08/28 13:04:31;;;;;;;;;;;;;;;29.46;33.88281;102298.3;;;;-76
2022/08/28 13:09:24;;;;;;;;;;;;;;;29.14;34.63086;102301.4;;;;-76
2022/08/28 13:14:29;;;;;;;;;;;;;;;28.93;34.81445;102296.6;;;;-77
2022/08/28 13:19:28;;;;;;;;;;;;;;;28.96;34.94434;102290.9;;;;-78
2022/08/28 13:24:30;;;;;;;;;;;;;;;28.84;35.09961;102294.2;;;;-76
2022/08/28 13:26:11;;;;;;;2.6;1.2;;;;;;;;;;;;;-75
2022/08/28 13:29:24;;;;;;;;;;;;;;;28.56;34.9375;102297.7;;;;-76
2022/08/28 13:34:25;;;;;;;;;;;;;;;28.59;34.93945;102290.5;;;;-75
2022/08/28 13:39:21;;;;;;;;;;;;;;;28.79;35.46973;102278.7;;;;-76
2022/08/28 13:44:31;;;;;;;;;;;;;;;29.19;35.16211;102283.4;;;;-76
2022/08/28 13:49:20;;;;;;;;;;;;;;;29.49;34.57617;102278.9;;;;-77
2022/08/28 13:54:19;;;;;;;;;;;;;;;29.66;34.84766;102283.8;;;;-75
2022/08/28 13:56:13;;;;;;;2.6;0.9;;;;;;;;;;;;;-75
2022/08/28 13:59:19;;;;;;;;;;;;;;;29.72;34.46387;102285.4;;;;-75
2022/08/28 14:04:19;;;;;;;;;;;;;;;29.73;34.55957;102279.1;;;;-75
2022/08/28 14:09:19;;;;;;;;;;;;;;;30;33.88867;102272.2;;;;-76
2022/08/28 14:14:19;;;;;;;;;;;;;;;29.98;33.72363;102278.3;;;;-75
2022/08/28 14:19:19;;;;;;;;;;;;;;;29.83;33.54785;102271.9;;;;-75
2022/08/28 14:24:20;;;;;;;;;;;;;;;29.75;34.04492;102275.6;;;;-75
2022/08/28 14:26:18;;;;;;;2;1;;;;;;;;;;;;;-75
2022/08/28 14:29:19;;;;;;;;;;;;;;;29.49;34.51758;102277;;;;-75
2022/08/28 14:34:20;;;;;;;;;;;;;;;29.23;34.44043;102273.4;;;;-76
2022/08/28 14:39:20;;;;;;;;;;;;;;;29.23;34.58008;102276.8;;;;-78
2022/08/28 14:44:19;;;;;;;;;;;;;;;29.27;34.67578;102264.2;;;;-75
2022/08/28 14:49:20;;;;;;;;;;;;;;;29.42;34.54688;102264.4;;;;-76
2022/08/28 14:54:20;;;;;;;;;;;;;;;29.52;34.05176;102265.6;;;;-76
2022/08/28 14:56:23;;;;;;;1.7;0.9;;;;;;;;;;;;;-77
2022/08/28 14:59:20;;;;;;;;;;;;;;;29.62;34.48047;102268.3;;;;-79
2022/08/28 15:04:21;;;;;;;;;;;;;;;29.76;33.82324;102268.1;;;;-77
2022/08/28 15:09:19;;;;;;;;;;;;;;;29.87;34.48828;102262.5;;;;-77
2022/08/28 15:14:19;;;;;;;;;;;;;;;29.98;34.68457;102268.8;;;;-78
2022/08/28 15:19:22;;;;;;;;;;;;;;;30.11;34.34277;102271.7;;;;-77
2022/08/28 15:24:20;;;;;;;;;;;;;;;29.91;34.78418;102269.5;;;;-76
2022/08/28 15:26:29;;;;;;;2;1.1;;;;;;;;;;;;;-76
2022/08/28 15:29:19;;;;;;;;;;;;;;;29.6;34.86621;102265.8;;;;-76
2022/08/28 15:34:20;;;;;;;;;;;;;;;29.46;35.07715;102271.9;;;;-75
2022/08/28 15:44:19;;;;;;;;;;;;;;;28.89;35.06836;102263.2;;;;-77
2022/08/28 15:49:20;;;;;;;;;;;;;;;28.55;35.78906;102261.3;;;;-75
2022/08/28 15:54:19;;;;;;;;;;;;;;;28.37;35.9502;102258.8;;;;-76
2022/08/28 15:56:33;;;;;;;5.6;3.2;;;;;;;;;;;;;-75
2022/08/28 15:59:20;;;;;;;;;;;;;;;28.19;35.74902;102259.5;;;;-75
2022/08/28 16:04:19;;;;;;;;;;;;;;;27.9;36.2041;102257.8;;;;-74
2022/08/28 16:09:19;;;;;;;;;;;;;;;27.65;36.51074;102256;;;;-76
2022/08/28 16:14:19;;;;;;;;;;;;;;;27.56;36.26953;102254.6;;;;-76
2022/08/28 16:19:19;;;;;;;;;;;;;;;27.58;36.03906;102259.3;;;;-76
2022/08/28 16:24:19;;;;;;;;;;;;;;;27.46;36.19238;102253.6;;;;-78
2022/08/28 16:26:37;;;;;;;4.9;3.1;;;;;;;;;;;;;-78
2022/08/28 16:29:19;;;;;;;;;;;;;;;27.19;36.64746;102253.2;;;;-74
2022/08/28 16:34:19;;;;;;;;;;;;;;;26.93;37.2666;102260.4;;;;-76
2022/08/28 16:39:21;;;;;;;;;;;;;;;26.8;37.01172;102258.4;;;;-75
2022/08/28 16:44:20;;;;;;;;;;;;;;;26.7;37.00391;102259.3;;;;-75
2022/08/28 16:49:20;;;;;;;;;;;;;;;26.5;37.49805;102263.7;;;;-75
2022/08/28 16:54:20;;;;;;;;;;;;;;;26.2;37.80957;102258.9;;;;-76
2022/08/28 16:56:42;;;;;;;18;9.4;;;;;;;;;;;;;-77
2022/08/28 16:59:19;;;;;;;;;;;;;;;25.91;38.09863;102254.8;;;;-76
2022/08/28 17:04:21;;;;;;;;;;;;;;;25.65;38.40137;102252.9;;;;-75
2022/08/28 17:09:19;;;;;;;;;;;;;;;25.41;38.56641;102253.8;;;;-77
2022/08/28 17:14:19;;;;;;;;;;;;;;;25.2;38.82715;102257.5;;;;-75
2022/08/28 17:19:19;;;;;;;;;;;;;;;25.03;38.97461;102259.8;;;;-77
2022/08/28 17:24:19;;;;;;;;;;;;;;;24.9;39.02148;102255.4;;;;-74
2022/08/28 17:26:46;;;;;;;8.3;4.4;;;;;;;;;;;;;-75
2022/08/28 17:29:19;;;;;;;;;;;;;;;24.79;38.83789;102251.3;;;;-75
2022/08/28 17:34:20;;;;;;;;;;;;;;;24.7;38.99219;102252.3;;;;-76
2022/08/28 17:39:24;;;;;;;;;;;;;;;24.62;39.22754;102251.4;;;;-76
2022/08/28 17:44:19;;;;;;;;;;;;;;;24.51;39.4834;102254.6;;;;-75
2022/08/28 17:49:19;;;;;;;;;;;;;;;24.39;39.6123;102255.6;;;;-76
2022/08/28 17:54:20;;;;;;;;;;;;;;;24.25;39.7041;102257;;;;-76
2022/08/28 17:56:49;;;;;;;3.5;2;;;;;;;;;;;;;-78
2022/08/28 17:59:19;;;;;;;;;;;;;;;24.07;40.15039;102261.6;;;;-77
2022/08/28 18:04:20;;;;;;;;;;;;;;;23.88;40.55957;102257.9;;;;-73
2022/08/28 18:09:19;;;;;;;;;;;;;;;23.68;40.66797;102254.5;;;;-77
2022/08/28 18:14:19;;;;;;;;;;;;;;;23.5;40.88184;102254.7;;;;-75
2022/08/28 18:19:20;;;;;;;;;;;;;;;23.31;41.04883;102257.3;;;;-77
2022/08/28 18:24:19;;;;;;;;;;;;;;;23.12;41.31934;102253.2;;;;-76
2022/08/28 18:26:53;;;;;;;3.8;1.5;;;;;;;;;;;;;-75
2022/08/28 18:29:19;;;;;;;;;;;;;;;22.91;41.60059;102258.4;;;;-78
2022/08/28 18:34:19;;;;;;;;;;;;;;;22.71;41.91504;102264.6;;;;-76
2022/08/28 18:39:19;;;;;;;;;;;;;;;22.48;42.2041;102270.7;;;;-77
2022/08/28 18:44:22;;;;;;;;;;;;;;;22.24;42.50293;102275;;;;-76
2022/08/28 18:49:20;;;;;;;;;;;;;;;22;42.88281;102276.8;;;;-74
2022/08/28 18:54:21;;;;;;;;;;;;;;;21.76;43.19141;102273.5;;;;-75
2022/08/28 18:57:04;;;;;;;2.9;1.2;;;;;;;;;;;;;-76
2022/08/28 18:59:19;;;;;;;;;;;;;;;21.52;43.82324;102282.4;;;;-76
2022/08/28 19:04:19;;;;;;;;;;;;;;;21.27;44.25586;102285;;;;-76
2022/08/28 19:09:20;;;;;;;;;;;;;;;21.02;44.87305;102290.9;;;;-78
2022/08/28 19:14:19;;;;;;;;;;;;;;;20.81;45.49219;102291.7;;;;-76
2022/08/28 19:19:19;;;;;;;;;;;;;;;20.59;45.79102;102304.7;;;;-77
2022/08/28 19:24:23;;;;;;;;;;;;;;;20.41;46.14941;102309.9;;;;-76
2022/08/28 19:27:01;;;;;;;2.4;1.1;;;;;;;;;;;;;-77
2022/08/28 19:29:19;;;;;;;;;;;;;;;20.21;46.34668;102306.6;;;;-75
2022/08/28 19:34:19;;;;;;;;;;;;;;;20.03;46.7041;102313.5;;;;-76
2022/08/28 19:39:21;;;;;;;;;;;;;;;19.85;47.0498;102315.6;;;;-76
2022/08/28 19:44:19;;;;;;;;;;;;;;;19.68;47.41992;102322.8;;;;-75
2022/08/28 19:49:19;;;;;;;;;;;;;;;19.53;47.58691;102322.6;;;;-77
2022/08/28 19:54:22;;;;;;;;;;;;;;;19.39;47.85547;102326.8;;;;-77
2022/08/28 19:57:03;;;;;;;2.2;1.1;;;;;;;;;;;;;-76
2022/08/28 19:59:19;;;;;;;;;;;;;;;19.23;47.96582;102335.2;;;;-76
2022/08/28 20:04:19;;;;;;;;;;;;;;;19.1;48.30371;102336.2;;;;-78
2022/08/28 20:09:19;;;;;;;;;;;;;;;18.98;48.4502;102340.7;;;;-76
2022/08/28 20:14:20;;;;;;;;;;;;;;;18.85;48.70996;102352.7;;;;-77
2022/08/28 20:19:19;;;;;;;;;;;;;;;18.71;48.89844;102349.1;;;;-76
2022/08/28 20:24:20;;;;;;;;;;;;;;;18.63;49.11719;102352.5;;;;-75
2022/08/28 20:27:07;;;;;;;1.7;0.9;;;;;;;;;;;;;-75
2022/08/28 20:29:20;;;;;;;;;;;;;;;18.53;49.18555;102352.8;;;;-77
2022/08/28 20:34:20;;;;;;;;;;;;;;;18.45;49.25684;102353.3;;;;-77
2022/08/28 20:39:19;;;;;;;;;;;;;;;18.37;49.29297;102351.5;;;;-75
2022/08/28 20:44:20;;;;;;;;;;;;;;;18.28;49.43164;102341.5;;;;-77
2022/08/28 20:49:20;;;;;;;;;;;;;;;18.22;49.68555;102349.6;;;;-77
2022/08/28 20:54:20;;;;;;;;;;;;;;;18.11;49.76367;102357.2;;;;-75
2022/08/28 20:57:11;;;;;;;3.2;1.1;;;;;;;;;;;;;-75
2022/08/28 20:59:19;;;;;;;;;;;;;;;18.01;49.74219;102358.3;;;;-75
2022/08/28 21:04:19;;;;;;;;;;;;;;;17.91;49.77539;102367;;;;-76
2022/08/28 21:09:21;;;;;;;;;;;;;;;17.78;49.96582;102375;;;;-76
2022/08/28 21:14:19;;;;;;;;;;;;;;;17.68;50.06738;102371.6;;;;-75
2022/08/28 21:19:19;;;;;;;;;;;;;;;17.59;50.35254;102367.1;;;;-76
2022/08/28 21:24:19;;;;;;;;;;;;;;;17.46;50.20215;102361.9;;;;-75
2022/08/28 21:27:11;;;;;;;2.6;1;;;;;;;;;;;;;-77
2022/08/28 21:29:20;;;;;;;;;;;;;;;17.36;50.41699;102364.1;;;;-78
2022/08/28 21:34:20;;;;;;;;;;;;;;;17.28;50.6123;102362.4;;;;-76
2022/08/28 21:39:19;;;;;;;;;;;;;;;17.2;50.7627;102368.1;;;;-77
2022/08/28 21:44:19;;;;;;;;;;;;;;;17.12;50.79785;102372.5;;;;-75
2022/08/28 21:49:21;;;;;;;;;;;;;;;17.04;50.91211;102376.8;;;;-76
2022/08/28 21:54:19;;;;;;;;;;;;;;;16.99;50.88477;102378.4;;;;-76
2022/08/28 21:57:13;;;;;;;2.4;1;;;;;;;;;;;;;-76
2022/08/28 21:59:19;;;;;;;;;;;;;;;16.93;51.00195;102378.3;;;;-75
2022/08/28 22:04:19;;;;;;;;;;;;;;;16.83;51.09375;102372.9;;;;-76
2022/08/28 22:09:19;;;;;;;;;;;;;;;16.78;51.18945;102375.3;;;;-75
2022/08/28 22:14:19;;;;;;;;;;;;;;;16.72;51.22754;102372.9;;;;-78
2022/08/28 22:19:19;;;;;;;;;;;;;;;16.65;51.30957;102367.2;;;;-74
2022/08/28 22:24:20;;;;;;;;;;;;;;;16.59;51.60938;102371.4;;;;-74
2022/08/28 22:27:15;;;;;;;1.9;1.1;;;;;;;;;;;;;-76
2022/08/28 22:29:19;;;;;;;;;;;;;;;16.53;51.53418;102380.7;;;;-77
2022/08/28 22:34:20;;;;;;;;;;;;;;;16.47;51.72949;102381.5;;;;-75
2022/08/28 22:39:19;;;;;;;;;;;;;;;16.41;51.81445;102381;;;;-78
2022/08/28 22:44:19;;;;;;;;;;;;;;;16.33;51.84961;102377.4;;;;-76
2022/08/28 22:49:19;;;;;;;;;;;;;;;16.27;52.01172;102377.6;;;;-76
2022/08/28 22:54:19;;;;;;;;;;;;;;;16.17;52.15918;102374.2;;;;-77
2022/08/28 22:57:21;;;;;;;2.1;1;;;;;;;;;;;;;-76
2022/08/28 22:59:19;;;;;;;;;;;;;;;16.1;51.94727;102372.2;;;;-75
2022/08/28 23:04:20;;;;;;;;;;;;;;;16.01;52.13965;102369.8;;;;-75
2022/08/28 23:09:19;;;;;;;;;;;;;;;15.95;52.26758;102368.4;;;;-75
2022/08/28 23:14:19;;;;;;;;;;;;;;;15.86;52.3252;102374;;;;-75
2022/08/28 23:19:19;;;;;;;;;;;;;;;15.8;52.58984;102361.9;;;;-77
2022/08/28 23:24:19;;;;;;;;;;;;;;;15.7;52.56543;102354.4;;;;-76
2022/08/28 23:27:20;;;;;;;2.8;0.9;;;;;;;;;;;;;-75
2022/08/28 23:29:19;;;;;;;;;;;;;;;15.65;52.89746;102362.7;;;;-75
2022/08/28 23:34:19;;;;;;;;;;;;;;;15.57;52.78711;102353.9;;;;-75
2022/08/28 23:39:19;;;;;;;;;;;;;;;15.48;52.96777;102364.6;;;;-75
2022/08/28 23:44:19;;;;;;;;;;;;;;;15.4;53.07227;102359.9;;;;-78
2022/08/28 23:49:19;;;;;;;;;;;;;;;15.35;53.06543;102355.5;;;;-76
2022/08/28 23:54:19;;;;;;;;;;;;;;;15.31;52.98242;102345.9;;;;-74
2022/08/28 23:57:22;;;;;;;3.3;1.1;;;;;;;;;;;;;-76
2022/08/28 23:59:19;;;;;;;;;;;;;;;15.25;52.94043;102344.4;;;;-75
